createdAt,value
2023-03-21T00:00:47.929Z,47.58
2023-03-21T00:03:16.285Z,47.55
2023-03-21T00:05:51.892Z,47.54
2023-03-21T00:08:21.492Z,47.46
2023-03-21T00:10:57.381Z,47.42
2023-03-21T00:13:26.462Z,47.64
2023-03-21T00:16:18.667Z,47.61
2023-03-21T00:18:46.410Z,47.80
2023-03-21T00:24:06.441Z,47.80
2023-03-21T00:26:34.512Z,47.78
2023-03-21T00:29:02.055Z,47.23
2023-03-21T00:31:30.157Z,47.20
2023-03-21T00:33:57.802Z,47.20
2023-03-21T00:36:26.071Z,47.36
2023-03-21T00:38:54.727Z,47.38
2023-03-21T00:41:39.230Z,47.78
2023-03-21T00:44:13.601Z,47.91
2023-03-21T00:46:54.170Z,47.94
2023-03-21T00:49:28.590Z,47.72
2023-03-21T00:51:59.593Z,47.96
2023-03-21T00:54:35.666Z,48.06
2023-03-21T00:57:05.302Z,48.11
2023-03-21T00:59:33.037Z,48.18
2023-03-21T01:02:00.697Z,48.01
2023-03-21T01:04:28.856Z,47.86
2023-03-21T01:06:56.457Z,47.72
2023-03-21T01:09:25.421Z,47.54
2023-03-21T01:11:54.241Z,47.65
2023-03-21T01:14:23.980Z,47.76
2023-03-21T01:16:53.458Z,48.01
2023-03-21T01:19:38.015Z,47.70
2023-03-21T01:22:08.717Z,47.95
2023-03-21T01:24:40.460Z,48.09
2023-03-21T01:27:11.199Z,48.04
2023-03-21T01:29:38.718Z,48.12
2023-03-21T01:32:06.440Z,48.15
2023-03-21T01:34:34.302Z,48.38
2023-03-21T01:37:01.935Z,48.15
2023-03-21T01:39:34.843Z,48.31
2023-03-21T01:42:02.412Z,48.43
2023-03-21T01:44:30.797Z,48.48
2023-03-21T01:47:10.594Z,48.26
2023-03-21T01:49:52.563Z,48.38
2023-03-21T01:52:38.703Z,48.70
2023-03-21T01:55:13.926Z,48.71
2023-03-21T01:58:05.436Z,48.74
2023-03-21T02:00:55.209Z,48.70
2023-03-21T02:03:38.474Z,48.88
2023-03-21T02:06:48.964Z,48.45
2023-03-21T02:09:33.434Z,48.78
2023-03-21T02:12:02.133Z,48.39
2023-03-21T02:14:34.650Z,48.40
2023-03-21T02:17:54.277Z,49.04
2023-03-21T02:21:27.690Z,48.37
2023-03-21T02:25:06.143Z,48.76
2023-03-21T02:27:51.244Z,48.69
2023-03-21T02:31:16.455Z,48.43
2023-03-21T02:34:27.260Z,48.76
2023-03-21T02:37:18.969Z,48.82
2023-03-21T02:40:11.022Z,48.86
2023-03-21T02:43:01.209Z,48.50
2023-03-21T02:45:43.617Z,48.71
2023-03-21T02:48:29.317Z,48.86
2023-03-21T02:51:04.177Z,48.77
2023-03-21T02:53:40.622Z,49.09
2023-03-21T02:56:10.755Z,48.85
2023-03-21T02:58:43.700Z,49.02
2023-03-21T03:01:11.549Z,48.78
2023-03-21T03:03:44.728Z,48.88
2023-03-21T03:06:29.034Z,48.86
2023-03-21T03:09:56.192Z,48.73
2023-03-21T03:13:08.100Z,48.46
2023-03-21T03:16:05.145Z,48.34
2023-03-21T03:18:56.780Z,48.54
2023-03-21T03:21:56.639Z,48.69
2023-03-21T03:24:36.836Z,48.34
2023-03-21T03:27:17.642Z,48.58
2023-03-21T03:29:48.722Z,48.54
2023-03-21T03:32:35.469Z,48.60
2023-03-21T03:35:06.858Z,48.36
2023-03-21T03:37:37.311Z,48.57
2023-03-21T03:40:18.226Z,48.32
2023-03-21T03:43:03.045Z,48.72
2023-03-21T03:45:43.979Z,48.46
2023-03-21T03:48:34.086Z,48.56
2023-03-21T03:51:10.395Z,48.38
2023-03-21T03:54:07.685Z,48.42
2023-03-21T03:56:36.383Z,48.33
2023-03-21T03:59:07.541Z,48.60
2023-03-21T04:01:53.691Z,48.60
2023-03-21T04:04:22.977Z,48.29
2023-03-21T04:06:53.405Z,48.33
2023-03-21T04:09:37.212Z,48.29
2023-03-21T04:12:10.777Z,48.36
2023-03-21T04:14:45.694Z,48.73
2023-03-21T04:17:16.037Z,48.70
2023-03-21T04:19:43.628Z,48.70
2023-03-21T04:22:12.564Z,49.10
2023-03-21T04:24:44.047Z,49.33
2023-03-21T04:27:11.619Z,48.98
2023-03-21T04:29:42.083Z,49.06
2023-03-21T04:32:42.609Z,49.22
2023-03-21T04:35:15.357Z,49.53
2023-03-21T04:37:42.873Z,49.36
2023-03-21T04:40:17.614Z,49.38
2023-03-21T04:42:47.744Z,49.22
2023-03-21T04:45:17.466Z,49.38
2023-03-21T04:47:46.590Z,49.21
2023-03-21T04:50:15.797Z,49.61
2023-03-21T04:52:44.302Z,49.52
2023-03-21T04:55:11.891Z,49.71
2023-03-21T04:57:40.295Z,49.46
2023-03-21T05:00:13.092Z,49.50
2023-03-21T05:02:41.032Z,49.38
2023-03-21T05:05:11.325Z,49.35
2023-03-21T05:07:41.157Z,49.38
2023-03-21T05:10:12.257Z,49.32
2023-03-21T05:12:42.672Z,49.02
2023-03-21T05:15:10.653Z,49.21
2023-03-21T05:17:38.493Z,49.00
2023-03-21T05:20:09.255Z,49.13
2023-03-21T05:22:40.270Z,49.30
2023-03-21T05:25:11.668Z,49.27
2023-03-21T05:28:04.742Z,49.47
2023-03-21T05:30:33.524Z,49.37
2023-03-21T05:33:02.738Z,49.55
2023-03-21T05:35:31.376Z,49.75
2023-03-21T05:38:02.032Z,49.56
2023-03-21T05:40:33.174Z,49.83
2023-03-21T05:43:01.023Z,49.62
2023-03-21T05:45:28.588Z,49.75
2023-03-21T05:47:56.626Z,49.67
2023-03-21T05:50:29.357Z,49.59
2023-03-21T05:53:17.469Z,49.38
2023-03-21T05:55:45.594Z,49.35
2023-03-21T05:58:24.568Z,49.82
2023-03-21T06:00:52.593Z,49.38
2023-03-21T06:03:27.652Z,49.09
2023-03-21T06:06:03.598Z,49.33
2023-03-21T06:08:37.156Z,49.31
2023-03-21T06:11:20.204Z,49.16
2023-03-21T06:13:48.146Z,49.18
2023-03-21T06:16:15.812Z,49.24
2023-03-21T06:18:43.977Z,49.29
2023-03-21T06:21:26.359Z,49.58
2023-03-21T06:23:54.325Z,49.43
2023-03-21T06:26:23.253Z,49.52
2023-03-21T06:28:54.034Z,49.34
2023-03-21T06:31:22.690Z,49.39
2023-03-21T06:33:52.126Z,49.16
2023-03-21T06:36:20.194Z,49.40
2023-03-21T06:38:48.602Z,49.25
2023-03-21T06:41:16.949Z,49.11
2023-03-21T06:43:52.067Z,49.35
2023-03-21T06:46:20.379Z,49.00
2023-03-21T06:48:48.495Z,49.46
2023-03-21T06:51:16.656Z,49.02
2023-03-21T06:53:57.428Z,49.10
2023-03-21T06:56:30.749Z,48.74
2023-03-21T06:58:58.596Z,48.40
2023-03-21T07:01:45.484Z,48.25
2023-03-21T07:04:13.789Z,48.29
2023-03-21T07:06:42.406Z,48.22
2023-03-21T07:09:10.038Z,48.13
2023-03-21T07:11:38.689Z,47.97
2023-03-21T07:14:06.893Z,47.81
2023-03-21T07:16:34.780Z,47.77
2023-03-21T07:19:02.341Z,47.58
2023-03-21T07:21:29.895Z,47.23
2023-03-21T07:23:57.497Z,47.26
2023-03-21T07:26:25.048Z,47.41
2023-03-21T07:28:52.553Z,47.17
2023-03-21T07:31:20.229Z,46.87
2023-03-21T07:33:49.211Z,46.71
2023-03-21T07:36:16.887Z,46.79
2023-03-21T07:38:46.254Z,46.69
2023-03-21T07:43:46.719Z,46.49
2023-03-21T07:46:14.384Z,46.65
2023-03-21T07:48:41.904Z,46.50
2023-03-21T07:51:09.665Z,46.30
2023-03-21T07:53:37.366Z,46.41
2023-03-21T07:56:05.659Z,46.52
2023-03-21T07:58:34.305Z,46.48
2023-03-21T08:01:02.324Z,46.53
2023-03-21T08:03:31.379Z,46.56
2023-03-21T08:06:02.057Z,46.23
2023-03-21T08:08:29.756Z,45.98
2023-03-21T08:10:57.461Z,45.92
2023-03-21T08:13:26.037Z,45.60
2023-03-21T08:15:53.837Z,45.29
2023-03-21T08:18:21.489Z,44.92
2023-03-21T08:20:57.060Z,44.81
2023-03-21T08:23:25.896Z,44.35
2023-03-21T08:25:54.937Z,44.18
2023-03-21T08:28:23.647Z,44.12
2023-03-21T08:30:51.334Z,43.84
2023-03-21T08:33:19.274Z,43.49
2023-03-21T08:35:47.281Z,43.45
2023-03-21T08:38:14.840Z,43.11
2023-03-21T08:40:42.478Z,42.75
2023-03-21T08:43:10.232Z,42.81
2023-03-21T08:45:38.137Z,42.77
2023-03-21T08:48:06.429Z,42.54
2023-03-21T08:50:33.967Z,42.14
2023-03-21T08:53:01.522Z,42.11
2023-03-21T08:55:29.090Z,41.62
2023-03-21T08:57:57.999Z,41.63
2023-03-21T09:00:25.952Z,41.70
2023-03-21T09:02:54.499Z,41.63
2023-03-21T09:05:25.446Z,41.29
2023-03-21T09:07:53.539Z,41.00
2023-03-21T09:10:23.298Z,41.33
2023-03-21T09:12:53.720Z,41.26
2023-03-21T09:15:24.925Z,41.13
2023-03-21T09:17:54.027Z,41.18
2023-03-21T09:20:30.908Z,40.85
2023-03-21T09:22:59.862Z,40.45
2023-03-21T09:25:30.938Z,40.45
2023-03-21T09:28:00.499Z,40.48
2023-03-21T09:30:29.339Z,40.43
2023-03-21T09:32:56.926Z,39.58
2023-03-21T09:35:24.808Z,39.45
2023-03-21T09:37:52.853Z,39.34
2023-03-21T09:41:16.519Z,39.40
2023-03-21T09:44:13.960Z,39.16
2023-03-21T09:47:20.674Z,38.59
2023-03-21T09:50:13.153Z,38.67
2023-03-21T09:53:38.943Z,39.17
2023-03-21T09:56:12.476Z,38.71
2023-03-21T09:58:55.236Z,38.57
2023-03-21T10:01:34.404Z,38.41
2023-03-21T10:04:07.989Z,38.44
2023-03-21T10:06:41.126Z,38.28
2023-03-21T10:09:24.315Z,38.02
2023-03-21T10:12:14.838Z,38.46
2023-03-21T10:14:51.768Z,38.12
2023-03-21T10:17:40.902Z,37.79
2023-03-21T10:20:21.697Z,37.32
2023-03-21T10:22:53.985Z,36.95
2023-03-21T10:25:54.026Z,37.08
2023-03-21T10:28:26.729Z,36.58
2023-03-21T10:31:07.230Z,36.75
2023-03-21T10:33:39.692Z,35.78
2023-03-21T10:36:25.827Z,35.77
2023-03-21T10:39:04.997Z,35.99
2023-03-21T10:41:34.159Z,35.93
2023-03-21T10:44:14.653Z,35.83
2023-03-21T10:46:57.814Z,36.06
2023-03-21T10:49:26.669Z,36.09
2023-03-21T10:51:59.291Z,36.31
2023-03-21T10:54:31.157Z,36.25
2023-03-21T10:57:23.111Z,36.03
2023-03-21T10:59:58.147Z,36.26
2023-03-21T11:02:33.714Z,36.07
2023-03-21T11:05:37.376Z,35.93
2023-03-21T11:08:12.146Z,36.22
2023-03-21T11:11:08.662Z,36.80
2023-03-21T11:13:44.731Z,35.83
2023-03-21T11:16:22.679Z,35.73
2023-03-21T11:18:56.450Z,35.84
2023-03-21T11:21:29.787Z,35.96
2023-03-21T11:23:57.637Z,35.48
2023-03-21T11:26:36.797Z,35.55
2023-03-21T11:29:32.858Z,35.93
2023-03-21T11:32:12.647Z,35.68
2023-03-21T11:35:00.342Z,35.85
2023-03-21T11:37:57.049Z,36.40
2023-03-21T11:40:34.113Z,36.19
2023-03-21T11:43:23.109Z,36.12
2023-03-21T11:46:10.415Z,36.17
2023-03-21T11:48:46.919Z,36.08
2023-03-21T11:51:29.439Z,36.15
2023-03-21T11:54:10.755Z,36.63
2023-03-21T11:56:59.355Z,36.58
2023-03-21T11:59:49.416Z,36.23
2023-03-21T12:02:42.940Z,36.40
2023-03-21T12:05:46.224Z,36.88
2023-03-21T12:08:40.202Z,36.51
2023-03-21T12:11:43.253Z,36.07
2023-03-21T12:14:34.644Z,36.25
2023-03-21T12:17:47.593Z,36.07
2023-03-21T12:20:35.132Z,36.21
2023-03-21T12:23:45.554Z,36.24
2023-03-21T12:26:42.207Z,36.23
2023-03-21T12:29:18.842Z,36.26
2023-03-21T12:32:11.018Z,36.25
2023-03-21T12:35:06.763Z,35.96
2023-03-21T12:38:01.886Z,35.51
2023-03-21T12:41:08.078Z,36.11
2023-03-21T12:44:01.428Z,35.99
2023-03-21T12:46:42.790Z,35.95
2023-03-21T12:49:26.497Z,35.77
2023-03-21T12:52:34.669Z,35.79
2023-03-21T12:55:21.385Z,35.70
2023-03-21T12:58:06.182Z,35.80
2023-03-21T13:00:56.968Z,35.85
2023-03-21T13:03:54.314Z,35.87
2023-03-21T13:06:24.872Z,35.21
2023-03-21T13:09:36.711Z,35.84
2023-03-21T13:13:02.614Z,35.82
2023-03-21T13:15:42.089Z,35.73
2023-03-21T13:18:12.456Z,35.00
2023-03-21T13:20:47.560Z,35.46
2023-03-21T13:23:15.352Z,35.00
2023-03-21T13:25:48.108Z,35.44
2023-03-21T13:28:27.482Z,35.59
2023-03-21T13:31:24.858Z,35.22
2023-03-21T13:33:58.586Z,34.98
2023-03-21T13:36:31.131Z,35.32
2023-03-21T13:39:06.790Z,35.74
2023-03-21T13:41:47.134Z,35.82
2023-03-21T13:44:48.966Z,35.73
2023-03-21T13:47:50.843Z,35.79
2023-03-21T13:50:18.270Z,35.38
2023-03-21T13:53:11.107Z,35.60
2023-03-21T13:55:45.932Z,35.88
2023-03-21T13:58:49.724Z,35.95
2023-03-21T14:01:38.400Z,35.83
2023-03-21T14:04:15.531Z,35.69
2023-03-21T14:07:05.835Z,35.75
2023-03-21T14:09:46.128Z,35.66
2023-03-21T14:12:36.626Z,35.86
2023-03-21T14:15:17.795Z,35.49
2023-03-21T14:17:55.400Z,35.84
2023-03-21T14:20:30.680Z,35.86
2023-03-21T14:22:58.509Z,35.69
2023-03-21T14:25:41.033Z,35.60
2023-03-21T14:28:28.734Z,35.83
2023-03-21T14:31:02.163Z,35.91
2023-03-21T14:33:39.381Z,35.80
2023-03-21T14:36:35.215Z,35.76
2023-03-21T14:39:24.002Z,35.97
2023-03-21T14:41:55.522Z,35.81
2023-03-21T14:44:26.505Z,35.58
2023-03-21T14:47:06.126Z,36.12
2023-03-21T14:49:36.786Z,36.18
2023-03-21T14:52:20.558Z,36.08
2023-03-21T14:54:49.301Z,36.38
2023-03-21T14:57:37.704Z,36.37
2023-03-21T15:00:14.445Z,36.66
2023-03-21T15:02:44.618Z,37.05
2023-03-21T15:05:22.001Z,36.91
2023-03-21T15:07:57.400Z,36.80
2023-03-21T15:10:28.323Z,36.94
2023-03-21T15:13:00.267Z,36.44
2023-03-21T15:15:29.948Z,36.77
2023-03-21T15:18:08.273Z,36.64
2023-03-21T15:20:38.357Z,36.47
2023-03-21T15:23:29.850Z,36.79
2023-03-21T15:25:58.484Z,36.98
2023-03-21T15:28:26.291Z,37.06
2023-03-21T15:30:54.761Z,36.74
2023-03-21T15:33:25.436Z,36.72
2023-03-21T15:35:58.136Z,37.44
2023-03-21T15:38:44.898Z,37.41
2023-03-21T15:41:28.783Z,37.28
2023-03-21T15:44:02.545Z,36.94
2023-03-21T15:46:41.368Z,37.04
2023-03-21T15:49:15.007Z,37.41
2023-03-21T15:52:04.421Z,37.60
2023-03-21T15:54:43.416Z,37.67
2023-03-21T15:57:38.025Z,37.95
2023-03-21T16:00:19.696Z,37.83
2023-03-21T16:02:53.335Z,37.81
2023-03-21T16:05:28.446Z,37.97
2023-03-21T16:08:20.573Z,38.01
2023-03-21T16:10:49.040Z,38.09
2023-03-21T16:13:17.533Z,38.41
2023-03-21T16:15:46.875Z,38.46
2023-03-21T16:18:17.357Z,38.47
2023-03-21T16:20:46.751Z,38.64
2023-03-21T16:23:15.807Z,38.33
2023-03-21T16:25:44.561Z,38.86
2023-03-21T16:28:17.138Z,38.84
2023-03-21T16:30:45.409Z,39.03
2023-03-21T16:33:13.766Z,39.16
2023-03-21T16:35:41.480Z,38.83
2023-03-21T16:38:12.350Z,39.16
2023-03-21T16:40:43.515Z,38.94
2023-03-21T16:43:11.672Z,39.52
2023-03-21T16:45:39.337Z,39.31
2023-03-21T16:48:08.724Z,39.85
2023-03-21T16:50:42.416Z,39.15
2023-03-21T16:53:10.173Z,39.04
2023-03-21T16:55:38.770Z,39.05
2023-03-21T16:58:06.528Z,39.18
2023-03-21T17:00:37.566Z,39.74
2023-03-21T17:03:18.085Z,39.96
2023-03-21T17:05:46.198Z,40.38
2023-03-21T17:08:17.070Z,40.47
2023-03-21T17:10:45.944Z,40.30
2023-03-21T17:13:13.522Z,40.61
2023-03-21T17:15:42.085Z,41.10
2023-03-21T17:18:11.866Z,40.92
2023-03-21T17:20:41.403Z,41.13
2023-03-21T17:23:10.368Z,41.33
2023-03-21T17:25:38.136Z,41.01
2023-03-21T17:28:05.693Z,41.03
2023-03-21T17:30:36.780Z,41.38
2023-03-21T17:33:04.461Z,41.78
2023-03-21T17:35:32.249Z,41.53
2023-03-21T17:37:59.777Z,41.13
2023-03-21T17:40:32.159Z,41.83
2023-03-21T17:43:01.289Z,41.97
2023-03-21T17:45:29.654Z,41.88
2023-03-21T17:47:57.334Z,42.40
2023-03-21T17:50:27.531Z,42.20
2023-03-21T17:52:57.739Z,42.66
2023-03-21T17:55:26.139Z,42.73
2023-03-21T17:57:53.903Z,43.13
2023-03-21T18:00:28.332Z,42.75
2023-03-21T18:02:56.554Z,43.18
2023-03-21T18:05:25.508Z,43.35
2023-03-21T18:08:09.870Z,43.53
2023-03-21T18:10:40.027Z,43.36
2023-03-21T18:13:07.822Z,43.00
2023-03-21T18:15:38.053Z,43.66
2023-03-21T18:18:06.044Z,43.60
2023-03-21T18:23:21.920Z,43.18
2023-03-21T18:25:52.202Z,43.09
2023-03-21T18:28:21.485Z,42.84
2023-03-21T18:33:41.324Z,43.31
2023-03-21T18:36:10.329Z,43.56
2023-03-21T18:38:38.214Z,43.80
2023-03-21T18:41:07.815Z,44.17
2023-03-21T18:46:24.859Z,44.29
2023-03-21T18:48:52.664Z,44.51
2023-03-21T18:51:20.324Z,44.66
2023-03-21T18:53:47.833Z,44.79
2023-03-21T18:56:57.772Z,44.38
2023-03-21T18:59:04.951Z,44.20
2023-03-21T19:01:32.783Z,43.90
2023-03-21T19:06:50.078Z,43.48
2023-03-21T19:09:18.643Z,43.57
2023-03-21T19:11:47.119Z,43.71
2023-03-21T19:14:16.927Z,43.98
2023-03-21T19:17:18.318Z,44.01
2023-03-21T19:19:33.672Z,44.04
2023-03-21T19:22:01.657Z,44.40
2023-03-21T19:24:29.665Z,44.43
2023-03-21T19:26:57.541Z,44.19
2023-03-21T19:29:25.717Z,44.49
2023-03-21T19:31:53.508Z,44.59
2023-03-21T19:34:21.175Z,44.58
2023-03-21T19:36:52.024Z,44.31
2023-03-21T19:39:22.598Z,44.61
2023-03-21T19:41:55.254Z,44.48
2023-03-21T19:44:29.706Z,44.38
2023-03-21T19:46:57.220Z,44.38
2023-03-21T19:49:34.725Z,44.29
2023-03-21T19:52:13.350Z,44.35
2023-03-21T19:54:40.946Z,44.42
2023-03-21T19:57:09.758Z,44.42
2023-03-21T19:59:37.703Z,44.64
2023-03-21T20:02:31.190Z,44.66
2023-03-21T20:04:53.534Z,44.66
2023-03-21T20:07:21.028Z,44.88
2023-03-21T20:09:52.843Z,44.79
2023-03-21T20:12:22.983Z,44.99
2023-03-21T20:14:55.989Z,45.08
2023-03-21T20:17:32.897Z,45.11
2023-03-21T20:20:01.032Z,45.08
2023-03-21T20:22:58.859Z,45.04
2023-03-21T20:25:16.715Z,45.18
2023-03-21T20:27:44.945Z,45.04
2023-03-21T20:30:18.857Z,45.17
2023-03-21T20:32:47.014Z,44.93
2023-03-21T20:35:29.507Z,44.74
2023-03-21T20:38:05.289Z,44.57
2023-03-21T20:40:32.794Z,44.48
2023-03-21T20:43:28.437Z,44.41
2023-03-21T20:45:49.107Z,44.25
2023-03-21T20:48:16.970Z,44.33
2023-03-21T20:50:44.868Z,43.89
2023-03-21T20:53:12.647Z,43.83
2023-03-21T20:55:40.366Z,43.76
2023-03-21T20:58:30.044Z,43.76
2023-03-21T21:00:59.575Z,43.73
2023-03-21T21:03:27.164Z,43.75
2023-03-21T21:05:54.905Z,43.83
2023-03-21T21:08:22.396Z,44.07
2023-03-21T21:11:32.682Z,44.00
2023-03-21T21:13:37.876Z,43.78
2023-03-21T21:16:07.650Z,44.05
2023-03-21T21:18:36.573Z,43.82
2023-03-21T21:21:06.883Z,43.89
2023-03-21T21:23:39.723Z,43.91
2023-03-21T21:26:09.147Z,43.77
2023-03-21T21:28:38.322Z,43.73
2023-03-21T21:31:19.840Z,43.70
2023-03-21T21:33:50.067Z,43.67
2023-03-21T21:36:17.727Z,43.50
2023-03-21T21:38:46.291Z,43.55
2023-03-21T21:41:25.196Z,43.48
2023-03-21T21:43:52.732Z,43.08
2023-03-21T21:46:20.296Z,43.18
2023-03-21T21:48:48.835Z,43.23
2023-03-21T21:51:26.083Z,43.21
2023-03-21T21:53:55.895Z,43.24
2023-03-21T21:56:25.895Z,43.28
2023-03-21T21:58:54.466Z,43.04
2023-03-21T22:01:21.981Z,43.37
2023-03-21T22:03:51.591Z,43.67
2023-03-21T22:06:19.108Z,43.54
2023-03-21T22:08:47.061Z,43.63
2023-03-21T22:11:15.910Z,43.91
2023-03-21T22:13:43.619Z,44.41
2023-03-21T22:16:11.780Z,44.41
2023-03-21T22:18:39.342Z,44.42
2023-03-21T22:21:07.362Z,44.54
2023-03-21T22:23:35.199Z,44.82
2023-03-21T22:26:02.819Z,44.86
2023-03-21T22:28:34.343Z,44.84
2023-03-21T22:31:10.276Z,44.59
2023-03-21T22:33:38.041Z,44.99
2023-03-21T22:36:06.893Z,45.15
2023-03-21T22:38:34.757Z,45.45
2023-03-21T22:41:05.398Z,45.19
2023-03-21T22:43:34.260Z,45.12
2023-03-21T22:46:03.847Z,45.18
2023-03-21T22:48:31.871Z,45.13
2023-03-21T22:51:00.439Z,45.55
2023-03-21T22:53:28.338Z,45.90
2023-03-21T22:55:56.420Z,45.88
2023-03-21T22:58:24.378Z,45.85
2023-03-21T23:00:52.074Z,45.59
2023-03-21T23:03:19.833Z,46.06
2023-03-21T23:05:47.336Z,46.36
2023-03-21T23:08:14.885Z,46.31
2023-03-21T23:10:44.102Z,45.86
2023-03-21T23:13:12.143Z,45.80
2023-03-21T23:15:39.884Z,45.92
2023-03-21T23:18:07.458Z,46.12
2023-03-21T23:20:35.329Z,45.99
2023-03-21T23:23:03.107Z,45.87
2023-03-21T23:25:30.752Z,45.87
2023-03-21T23:27:58.266Z,45.89
2023-03-21T23:30:26.354Z,45.85
2023-03-21T23:32:53.965Z,46.01
2023-03-21T23:35:21.520Z,45.89
2023-03-21T23:37:52.499Z,45.83
2023-03-21T23:40:21.256Z,45.65
2023-03-21T23:42:48.836Z,45.58
2023-03-21T23:45:16.428Z,45.44
2023-03-21T23:47:44.224Z,45.57
2023-03-21T23:50:11.845Z,45.36
2023-03-21T23:52:41.586Z,45.50
2023-03-21T23:55:09.773Z,45.45
2023-03-21T23:57:41.789Z,45.36
